Time;durP1;ratioP1;P1;durP2;ratioP2;P2;SDS_P1;SDS_P2;PMS_P1;PMS_P2;Temp;Humidity;BMP_temperature;BMP_pressure;BME280_temperature;BME280_humidity;BME280_pressure;Samples;Min_cycle;Max_cycle;Signal;HPM_P1;HPM_P2
2022/05/13 00:00:40;;;;;;;4.50;2.75;;;;;;;23.34;42.22;102362.19;4180351;28;20037;-67
2022/05/13 00:02:42;;;;;;;2.95;2.15;;;;;;;23.34;42.29;102359.38;4166144;28;20071;-68
2022/05/13 00:04:45;;;;;;;3.53;2.53;;;;;;;23.35;41.91;102357.44;4164126;28;20099;-67
2022/05/13 00:06:47;;;;;;;2.40;1.90;;;;;;;23.08;42.32;102319.16;4170176;28;20098;-68
2022/05/13 00:08:51;;;;;;;4.95;2.38;;;;;;;23.29;42.62;102347.31;4180844;28;20106;-68
2022/05/13 00:10:57;;;;;;;3.40;2.50;;;;;;;23.27;42.79;102338.34;4180706;28;20045;-68
2022/05/13 00:13:04;;;;;;;2.47;2.25;;;;;;;23.34;42.77;102356.59;4180993;28;20414;-68
2022/05/13 00:15:13;;;;;;;3.75;1.90;;;;;;;23.36;43.02;102361.91;4180946;28;20045;-68
2022/05/13 00:17:21;;;;;;;3.42;2.35;;;;;;;23.37;43.25;102359.97;4180581;28;20049;-68
2022/05/13 00:19:23;;;;;;;2.60;1.75;;;;;;;23.32;42.73;102349.56;4173679;28;20527;-68
2022/05/13 00:21:27;;;;;;;3.35;2.25;;;;;;;23.37;43.00;102360.81;4174196;28;20045;-68
2022/05/13 00:23:28;;;;;;;3.08;1.95;;;;;;;23.37;42.76;102365.53;4180402;28;20102;-71
2022/05/13 00:25:33;;;;;;;3.65;2.00;;;;;;;23.37;42.68;102371.13;4179463;28;20094;-71
2022/05/13 00:27:35;;;;;;;2.88;2.10;;;;;;;23.28;43.17;102351.22;4179467;28;20408;-72
2022/05/13 00:29:36;;;;;;;3.72;1.75;;;;;;;23.38;42.61;102379.25;4180611;28;20103;-71
2022/05/13 00:31:42;;;;;;;3.70;2.05;;;;;;;23.37;42.67;102376.72;4181530;28;20033;-71
2022/05/13 00:33:43;;;;;;;5.40;2.20;;;;;;;23.38;42.60;102384.00;4179084;28;20045;-71
2022/05/13 00:35:45;;;;;;;2.47;2.15;;;;;;;23.39;42.55;102385.69;4171309;28;20034;-71
2022/05/13 00:37:55;;;;;;;2.33;2.10;;;;;;;23.38;42.93;102379.25;4164097;28;20469;-71
2022/05/13 00:39:59;;;;;;;4.10;2.10;;;;;;;23.40;43.37;102376.19;4163983;28;20042;-71
2022/05/13 00:42:17;;;;;;;3.72;1.92;;;;;;;23.38;42.85;102375.63;4164096;28;20099;-71
2022/05/13 00:44:18;;;;;;;3.33;1.83;;;;;;;23.40;43.00;102373.41;4164315;28;20472;-72
2022/05/13 00:46:24;;;;;;;5.60;2.22;;;;;;;23.31;43.31;102367.44;4163668;28;20045;-71
2022/05/13 00:48:25;;;;;;;6.03;2.15;;;;;;;23.40;42.69;102379.00;4163833;28;20041;-71
2022/05/13 00:50:31;;;;;;;3.53;2.10;;;;;;;23.39;43.67;102382.91;4163758;28;20045;-71
2022/05/13 00:52:33;;;;;;;4.05;2.20;;;;;;;23.40;43.14;102381.78;4162722;28;20061;-71
2022/05/13 00:54:38;;;;;;;3.90;2.20;;;;;;;23.40;43.06;102376.19;4163823;28;20115;-71
2022/05/13 00:56:45;;;;;;;6.25;2.63;;;;;;;23.32;43.19;102358.81;4163547;28;20095;-72
2022/05/13 00:58:49;;;;;;;3.15;2.13;;;;;;;23.39;43.38;102375.34;4163997;28;20057;-72
2022/05/13 01:00:50;;;;;;;2.55;2.00;;;;;;;23.39;43.59;102375.34;4163477;28;20547;-71
2022/05/13 01:02:55;;;;;;;2.78;2.05;;;;;;;23.40;43.42;102381.78;4163742;28;20499;-72
2022/05/13 01:04:59;;;;;;;3.08;2.25;;;;;;;23.39;44.12;102375.34;4163807;28;20045;-71
2022/05/13 01:07:08;;;;;;;3.15;2.30;;;;;;;23.28;43.71;102366.03;4163636;28;20107;-71
2022/05/13 01:09:10;;;;;;;3.25;2.05;;;;;;;23.41;44.10;102386.25;4163700;28;20033;-71
2022/05/13 01:11:15;;;;;;;2.63;1.95;;;;;;;23.41;43.59;102391.84;4164188;28;20076;-71
2022/05/13 01:13:37;;;;;;;2.67;2.38;;;;;;;23.39;43.63;102396.88;4167332;28;20107;-72
2022/05/13 01:15:41;;;;;;;6.65;2.63;;;;;;;23.41;43.77;102391.84;4177862;28;20033;-72
2022/05/13 01:20:04;;;;;;;4.03;2.33;;;;;;;23.43;43.68;102392.44;4183587;28;20094;-71
2022/05/13 01:22:16;;;;;;;3.00;2.03;;;;;;;23.40;43.81;102399.38;4183755;28;20507;-70
2022/05/13 01:24:20;;;;;;;3.78;2.50;;;;;;;23.41;43.34;102400.22;4183132;28;20369;-71
2022/05/13 01:26:29;;;;;;;4.47;2.00;;;;;;;23.35;43.13;102396.53;4182728;28;20107;-70
2022/05/13 01:28:34;;;;;;;3.47;2.30;;;;;;;23.42;43.16;102401.94;4169244;28;20053;-70
2022/05/13 01:30:41;;;;;;;4.30;2.30;;;;;;;23.41;43.00;102405.81;4161400;28;20053;-70
2022/05/13 01:32:42;;;;;;;3.55;2.30;;;;;;;23.42;42.74;102410.31;4166641;28;20111;-70
2022/05/13 01:34:47;;;;;;;50.83;5.70;;;;;;;23.41;43.24;102398.28;4166618;28;20033;-69
2022/05/13 01:36:48;;;;;;;64.72;4.65;;;;;;;23.41;43.14;102400.22;4168349;28;20315;-68
2022/05/13 01:38:49;;;;;;;34.80;4.03;;;;;;;23.42;42.81;102396.34;4166095;28;20037;-68
2022/05/13 01:40:51;;;;;;;23.45;3.38;;;;;;;23.33;43.17;102382.84;4181561;28;20198;-68
2022/05/13 01:42:52;;;;;;;14.38;2.67;;;;;;;23.43;43.20;102386.84;4166181;28;20093;-68
2022/05/13 01:44:54;;;;;;;14.05;2.65;;;;;;;23.41;42.68;102373.13;4168228;28;20040;-69
2022/05/13 01:46:55;;;;;;;9.23;2.90;;;;;;;23.43;42.91;102381.28;4168346;28;20054;-69
2022/05/13 01:49:14;;;;;;;7.50;2.40;;;;;;;23.43;42.66;102378.47;4167180;28;20049;-69
2022/05/13 01:51:16;;;;;;;6.05;2.28;;;;;;;23.43;42.59;102386.84;4166345;28;20037;-69
2022/05/13 01:53:18;;;;;;;11.18;2.42;;;;;;;23.42;42.61;102385.19;4169841;28;20094;-68
2022/05/13 01:55:19;;;;;;;11.18;2.80;;;;;;;23.43;42.97;102395.25;4165688;28;20045;-69
2022/05/13 01:57:21;;;;;;;4.18;2.25;;;;;;;23.40;44.59;102387.38;4182887;28;20110;-69
2022/05/13 01:59:22;;;;;;;9.10;2.30;;;;;;;23.43;43.08;102395.25;4181216;28;20063;-69
2022/05/13 02:01:24;;;;;;;13.57;3.05;;;;;;;23.42;43.22;102385.19;4166125;28;20045;-69
2022/05/13 02:03:45;;;;;;;6.20;2.50;;;;;;;23.43;43.33;102381.28;4168742;28;20041;-69
2022/05/13 02:05:47;;;;;;;6.10;2.42;;;;;;;23.44;44.95;102377.38;4167846;28;20108;-68
2022/05/13 02:07:48;;;;;;;9.00;2.72;;;;;;;23.43;44.50;102378.47;4167474;28;20041;-68
2022/05/13 02:09:50;;;;;;;7.80;2.58;;;;;;;23.41;45.52;102383.47;4168491;28;20057;-68
2022/05/13 02:11:51;;;;;;;8.27;2.67;;;;;;;23.43;44.62;102379.31;4168624;28;20107;-68
2022/05/13 02:13:54;;;;;;;12.38;2.88;;;;;;;23.44;44.81;102385.75;4168234;28;20099;-67
2022/05/13 02:15:55;;;;;;;8.52;3.08;;;;;;;23.43;45.18;102375.69;4171451;28;20037;-68
2022/05/13 02:17:56;;;;;;;7.05;2.53;;;;;;;23.42;44.92;102380.44;4167779;28;20041;-68
2022/05/13 02:19:58;;;;;;;6.45;2.65;;;;;;;23.43;45.33;102381.28;4182939;28;20025;-68
2022/05/13 02:21:59;;;;;;;8.80;2.88;;;;;;;23.40;45.36;102367.81;4184526;28;20080;-69
2022/05/13 02:24:01;;;;;;;8.40;3.15;;;;;;;23.43;45.75;102370.94;4183287;28;20452;-68
2022/05/13 02:26:05;;;;;;;6.35;2.80;;;;;;;23.44;46.38;102377.38;4182807;28;20080;-68
2022/05/13 02:28:06;;;;;;;7.80;2.80;;;;;;;23.45;46.55;102367.88;4184125;28;20079;-69
2022/05/13 02:30:09;;;;;;;7.50;3.17;;;;;;;23.43;46.48;102361.72;4180454;28;20791;-69
2022/05/13 02:32:11;;;;;;;7.80;3.03;;;;;;;23.46;46.95;102369.53;4167406;28;20099;-68
2022/05/13 02:34:12;;;;;;;9.23;3.15;;;;;;;23.43;46.18;102353.34;4173401;28;20080;-70
2022/05/13 02:36:14;;;;;;;10.05;3.17;;;;;;;23.46;46.17;102355.56;4184480;28;20443;-69
2022/05/13 02:38:16;;;;;;;8.05;2.67;;;;;;;23.44;46.34;102352.22;4184149;28;20036;-69
2022/05/13 02:40:18;;;;;;;5.88;2.63;;;;;;;23.34;46.86;102333.41;4183329;28;20175;-69
2022/05/13 02:42:19;;;;;;;5.28;2.67;;;;;;;23.47;47.09;102351.69;4183408;28;20098;-69
2022/05/13 02:44:22;;;;;;;6.82;2.83;;;;;;;23.43;46.14;102339.38;4182914;28;20029;-69
2022/05/13 02:46:32;;;;;;;7.03;2.63;;;;;;;23.45;46.63;102335.19;4183454;28;20053;-67
2022/05/13 02:48:33;;;;;;;4.22;2.35;;;;;;;23.48;46.23;102342.22;4180991;28;20048;-68
2022/05/13 02:50:38;;;;;;;9.57;2.67;;;;;;;23.47;46.74;102337.72;4183087;28;20045;-67
2022/05/13 02:52:39;;;;;;;5.18;2.30;;;;;;;23.47;46.42;102351.69;4171737;28;20033;-69
2022/05/13 02:54:40;;;;;;;5.00;2.42;;;;;;;23.47;46.59;102352.53;4166992;28;20029;-69
2022/05/13 02:56:42;;;;;;;4.72;2.22;;;;;;;23.47;46.07;102344.16;4149585;28;20038;-68
2022/05/13 02:58:44;;;;;;;7.05;2.80;;;;;;;23.48;45.92;102340.25;4166154;28;20033;-68
2022/05/13 03:00:46;;;;;;;10.02;2.97;;;;;;;23.48;45.99;102350.59;4166513;28;20428;-68
2022/05/13 03:02:48;;;;;;;4.95;2.47;;;;;;;23.48;46.21;102343.03;4168152;28;20034;-71
2022/05/13 03:04:49;;;;;;;5.57;2.47;;;;;;;23.48;46.31;102351.44;4177129;28;20087;-69
2022/05/13 03:06:51;;;;;;;11.00;3.08;;;;;;;23.48;45.90;102345.00;4182673;28;20090;-68
2022/05/13 03:08:54;;;;;;;5.95;2.47;;;;;;;23.46;46.29;102341.59;4166713;28;20038;-69
2022/05/13 03:10:55;;;;;;;7.35;2.38;;;;;;;23.47;46.02;102349.75;4166217;28;20045;-68
2022/05/13 03:12:58;;;;;;;6.88;2.70;;;;;;;23.47;45.71;102357.28;4164527;28;20099;-69
2022/05/13 03:15:00;;;;;;;5.90;2.70;;;;;;;23.49;45.92;102363.44;4167396;28;20064;-69
2022/05/13 03:17:04;;;;;;;5.68;2.42;;;;;;;23.48;46.08;102356.19;4166701;28;20041;-69
2022/05/13 03:19:05;;;;;;;5.53;2.55;;;;;;;23.47;45.79;102354.50;4164883;28;20111;-69
2022/05/13 03:21:08;;;;;;;6.18;2.40;;;;;;;23.18;45.95;102312.84;4178791;28;20037;-69
2022/05/13 03:23:10;;;;;;;4.18;2.30;;;;;;;23.49;45.98;102371.81;4181892;28;20037;-70
2022/05/13 03:25:15;;;;;;;7.70;2.80;;;;;;;23.49;45.58;102369.03;4181808;28;20041;-68
2022/05/13 03:27:16;;;;;;;;;;;;;;;23.47;46.16;102365.66;4181865;28;20106;-68
2022/05/13 03:29:20;;;;;;;4.40;1.88;;;;;;;23.53;45.74;102373.81;4181988;28;19916;-68
2022/05/13 03:31:22;;;;;;;6.43;2.33;;;;;;;23.50;45.61;102365.13;4181681;28;20502;-68
2022/05/13 03:33:23;;;;;;;6.57;2.17;;;;;;;23.52;45.94;102357.34;4181468;28;20472;-68
2022/05/13 03:35:25;;;;;;;5.68;2.28;;;;;;;23.51;45.52;102367.66;4177666;28;20037;-68
2022/05/13 03:37:27;;;;;;;6.53;2.30;;;;;;;23.50;45.28;102356.75;4165476;28;20539;-68
2022/05/13 03:39:28;;;;;;;14.10;2.72;;;;;;;23.47;45.45;102348.91;4170084;28;20033;-67
2022/05/13 03:41:30;;;;;;;5.40;2.67;;;;;;;23.40;45.37;102342.69;4164450;28;20041;-67
2022/05/13 03:43:31;;;;;;;4.18;2.15;;;;;;;23.50;45.40;102359.53;4163522;28;20041;-69
2022/05/13 03:45:34;;;;;;;7.05;2.90;;;;;;;23.48;45.82;102356.19;4163183;28;20083;-69
2022/05/13 03:47:39;;;;;;;4.47;2.30;;;;;;;23.51;45.45;102361.25;4164001;28;20041;-69
2022/05/13 03:49:40;;;;;;;3.53;2.05;;;;;;;23.50;45.48;102359.53;4164610;28;20053;-70
2022/05/13 03:51:47;;;;;;;3.97;2.40;;;;;;;23.51;45.15;102358.44;4164635;28;20098;-70
2022/05/13 03:53:49;;;;;;;7.57;2.25;;;;;;;23.50;45.50;102356.75;4163985;28;20037;-70
2022/05/13 03:55:50;;;;;;;5.50;2.50;;;;;;;23.51;45.16;102355.66;4166236;28;20531;-69
2022/05/13 03:57:52;;;;;;;4.72;2.72;;;;;;;23.50;45.67;102354.81;4165144;28;20033;-68
2022/05/13 03:59:53;;;;;;;5.30;2.20;;;;;;;23.50;45.51;102353.94;4164437;28;20095;-68
2022/05/13 04:01:55;;;;;;;4.97;2.65;;;;;;;23.43;45.44;102325.41;4164714;28;20439;-68
2022/05/13 04:03:56;;;;;;;7.28;2.80;;;;;;;23.50;45.20;102337.19;4166723;28;20420;-69
2022/05/13 04:10:40;;;;;;;5.90;2.17;;;;;;;23.48;45.89;102323.50;4165929;28;20095;-68
2022/05/13 04:17:22;;;;;;;5.05;2.45;;;;;;;23.50;45.65;102314.84;4166134;28;20107;-69
2022/05/13 04:19:24;;;;;;;5.65;2.03;;;;;;;23.51;45.50;102322.13;4149329;28;20068;-69
2022/05/13 04:21:29;;;;;;;4.68;2.55;;;;;;;23.42;45.41;102304.16;4165169;28;20037;-70
2022/05/13 04:23:35;;;;;;;5.07;2.40;;;;;;;23.48;45.63;102308.69;4165353;28;20045;-69
2022/05/13 04:25:36;;;;;;;6.53;2.63;;;;;;;23.50;45.14;102314.84;4166367;28;20087;-67
2022/05/13 04:27:41;;;;;;;4.72;2.40;;;;;;;23.50;45.58;102320.41;4164408;28;20049;-69
2022/05/13 04:29:42;;;;;;;5.82;2.30;;;;;;;23.50;45.12;102309.25;4147680;28;20078;-68
2022/05/13 04:31:44;;;;;;;3.65;2.50;;;;;;;23.40;45.67;102295.19;4164993;28;20087;-69
2022/05/13 04:33:45;;;;;;;4.82;2.47;;;;;;;23.48;45.62;102301.13;4165891;28;20116;-68
2022/05/13 04:35:47;;;;;;;6.60;2.55;;;;;;;23.48;45.30;102309.53;4164720;28;20037;-69
2022/05/13 04:37:54;;;;;;;4.90;2.42;;;;;;;23.50;45.12;102310.13;4164759;28;20045;-68
2022/05/13 04:40:02;;;;;;;5.97;2.33;;;;;;;23.43;45.60;102297.47;4164651;28;20045;-69
2022/05/13 04:44:24;;;;;;;2.45;2.05;;;;;;;23.49;45.32;102318.75;4166941;28;20396;-69
2022/05/13 04:46:25;;;;;;;2.35;1.90;;;;;;;23.51;45.49;102322.13;4167914;28;20103;-69
2022/05/13 04:48:27;;;;;;;4.45;2.30;;;;;;;23.45;45.54;102329.59;4169463;28;20474;-69
2022/05/13 04:50:28;;;;;;;4.38;2.10;;;;;;;23.50;45.47;102342.78;4174975;28;20095;-68
2022/05/13 04:52:29;;;;;;;4.97;2.65;;;;;;;23.50;45.24;102351.16;4174938;28;20022;-68
2022/05/13 04:54:31;;;;;;;3.90;2.08;;;;;;;23.50;45.58;102353.94;4177002;28;20033;-69
2022/05/13 04:56:35;;;;;;;3.85;2.28;;;;;;;23.50;45.20;102348.34;4172702;28;20103;-70
2022/05/13 04:58:39;;;;;;;4.90;2.30;;;;;;;23.50;45.50;102342.78;4173861;28;20064;-69
2022/05/13 05:00:40;;;;;;;6.72;2.10;;;;;;;23.50;45.09;102342.78;4172740;28;20068;-69
2022/05/13 05:02:41;;;;;;;7.10;3.03;;;;;;;23.51;45.06;102341.69;4174253;28;20384;-69
2022/05/13 05:04:43;;;;;;;4.57;2.55;;;;;;;23.51;45.31;102333.31;4174305;28;20103;-69
2022/05/13 05:06:47;;;;;;;4.85;2.30;;;;;;;23.51;44.91;102327.72;4170654;28;20045;-69
2022/05/13 05:09:04;;;;;;;4.43;2.28;;;;;;;23.49;45.30;102327.13;4169681;28;20131;-69
2022/05/13 05:11:07;;;;;;;4.00;2.25;;;;;;;23.52;45.07;102337.78;4167027;28;20119;-69
2022/05/13 05:13:12;;;;;;;4.28;2.15;;;;;;;23.51;45.37;102333.31;4168134;28;20115;-69
2022/05/13 05:15:14;;;;;;;4.72;2.35;;;;;;;23.50;45.30;102321.28;4168740;28;20030;-70
2022/05/13 05:17:18;;;;;;;3.53;1.95;;;;;;;23.51;45.34;102322.13;4167132;28;20088;-69
2022/05/13 05:19:19;;;;;;;3.73;2.50;;;;;;;23.51;45.54;102316.53;4167352;28;20208;-69
2022/05/13 05:21:20;;;;;;;4.10;2.28;;;;;;;23.51;45.31;102302.56;4167004;28;20267;-69
2022/05/13 05:23:25;;;;;;;5.47;2.33;;;;;;;23.50;45.37;102300.88;4167723;28;20053;-68
2022/05/13 05:25:28;;;;;;;4.72;1.88;;;;;;;23.50;45.15;102298.06;4167649;28;20041;-67
2022/05/13 05:27:30;;;;;;;3.55;1.90;;;;;;;23.51;45.59;102296.97;4166599;28;20053;-69
2022/05/13 05:29:34;;;;;;;3.65;2.08;;;;;;;23.48;45.31;102289.97;4167631;28;20037;-70
2022/05/13 05:31:38;;;;;;;2.33;1.75;;;;;;;23.40;45.15;102275.63;4167841;28;20045;-68
2022/05/13 05:33:43;;;;;;;3.78;2.35;;;;;;;23.43;45.52;102286.28;4166995;28;20041;-70
2022/05/13 05:35:47;;;;;;;;;;;;;;;23.49;45.71;102301.97;4167458;28;20107;-68
2022/05/13 05:37:49;;;;;;;3.58;2.17;;;;;;;23.53;44.77;102292.78;4167353;28;20307;-68
2022/05/13 05:39:50;;;;;;;4.82;2.13;;;;;;;23.54;45.45;102302.03;4167819;28;20049;-68
2022/05/13 05:41:52;;;;;;;2.08;1.80;;;;;;;23.47;45.24;102279.06;4167270;28;20041;-68
2022/05/13 05:43:54;;;;;;;3.08;2.05;;;;;;;23.50;45.18;102276.59;4168430;28;20095;-69
2022/05/13 05:45:57;;;;;;;5.30;2.33;;;;;;;23.50;45.25;102282.19;4168917;28;20111;-70
2022/05/13 05:47:59;;;;;;;2.33;1.75;;;;;;;23.44;45.41;102279.59;4168274;28;20045;-70
2022/05/13 05:50:02;;;;;;;4.15;2.20;;;;;;;23.49;45.20;102279.63;4149912;28;20088;-70
2022/05/13 05:52:03;;;;;;;3.47;2.03;;;;;;;23.47;45.46;102281.84;4167780;28;20107;-69
2022/05/13 05:58:45;;;;;;;2.67;1.98;;;;;;;23.45;45.38;102284.91;4168460;28;20087;-68
2022/05/13 06:00:49;;;;;;;3.45;1.90;;;;;;;23.47;45.41;102290.25;4166540;28;20034;-68
2022/05/13 06:02:51;;;;;;;2.53;2.00;;;;;;;23.50;44.96;102300.88;4166212;28;20045;-68
2022/05/13 06:04:55;;;;;;;2.85;1.98;;;;;;;23.50;45.35;102303.66;4167169;28;20419;-68
2022/05/13 06:06:56;;;;;;;3.40;1.80;;;;;;;23.49;45.20;102301.97;4166450;28;20045;-68
2022/05/13 06:08:59;;;;;;;2.05;1.73;;;;;;;23.49;45.15;102310.34;4180380;28;20454;-69
2022/05/13 06:11:01;;;;;;;3.80;1.88;;;;;;;23.49;45.36;102302.81;4190781;28;20087;-70
2022/05/13 06:13:05;;;;;;;2.67;1.83;;;;;;;23.50;45.25;102314.84;4182902;28;20476;-69
2022/05/13 06:15:07;;;;;;;3.17;2.00;;;;;;;23.48;44.87;102314.25;4183411;28;20024;-70
2022/05/13 06:17:09;;;;;;;5.10;1.80;;;;;;;23.50;45.02;102306.44;4182374;28;20041;-69
2022/05/13 06:19:10;;;;;;;3.40;2.22;;;;;;;23.47;44.84;102298.63;4182856;28;20049;-69
2022/05/13 06:21:14;;;;;;;4.25;2.20;;;;;;;23.48;45.44;102303.09;4182302;28;20037;-69
2022/05/13 06:23:16;;;;;;;2.47;1.80;;;;;;;23.49;45.21;102299.19;4182190;28;20037;-70
2022/05/13 06:25:21;;;;;;;5.68;2.30;;;;;;;23.48;45.22;102303.09;4167405;28;20836;-69
2022/05/13 06:27:23;;;;;;;2.55;1.70;;;;;;;23.48;44.95;102308.69;4165090;28;20444;-69
2022/05/13 06:29:26;;;;;;;4.50;1.65;;;;;;;23.47;45.33;102307.00;4165838;28;20092;-70
2022/05/13 06:31:27;;;;;;;2.53;1.88;;;;;;;23.39;45.07;102285.13;4165660;28;20045;-70
2022/05/13 06:33:31;;;;;;;2.97;2.00;;;;;;;23.47;45.26;102290.25;4165589;28;20103;-70
2022/05/13 06:35:34;;;;;;;2.53;1.93;;;;;;;23.48;45.15;102289.13;4165959;28;20045;-69
2022/05/13 06:37:35;;;;;;;2.60;1.95;;;;;;;23.49;45.08;102285.22;4165553;28;20091;-70
2022/05/13 06:39:36;;;;;;;2.88;1.83;;;;;;;23.49;44.87;102288.00;4166333;28;20440;-70
2022/05/13 06:41:40;;;;;;;3.30;2.10;;;;;;;23.48;45.23;102283.53;4182770;28;20460;-70
2022/05/13 06:43:45;;;;;;;2.08;1.88;;;;;;;23.49;45.13;102296.38;4181941;28;20098;-70
2022/05/13 06:45:46;;;;;;;2.83;2.08;;;;;;;23.48;45.25;102306.72;4181851;28;20098;-70
2022/05/13 06:47:47;;;;;;;4.15;1.80;;;;;;;23.49;45.13;102301.97;4183494;28;20473;-69
2022/05/13 06:49:49;;;;;;;4.20;1.90;;;;;;;23.48;45.05;102294.72;4182364;28;20049;-69
2022/05/13 06:51:50;;;;;;;3.30;1.88;;;;;;;23.48;44.86;102295.56;4182292;28;20045;-69
2022/05/13 06:53:52;;;;;;;3.33;1.70;;;;;;;23.49;45.28;102296.38;4182270;28;20041;-69
2022/05/13 06:55:56;;;;;;;2.30;1.77;;;;;;;23.48;44.87;102303.09;4182442;28;20029;-69
2022/05/13 06:57:58;;;;;;;3.83;2.40;;;;;;;23.48;45.01;102294.72;4168653;28;20104;-69
2022/05/13 06:59:59;;;;;;;2.28;1.80;;;;;;;23.45;45.06;102289.66;4165553;28;20037;-69
2022/05/13 07:02:04;;;;;;;2.00;1.60;;;;;;;23.36;45.05;102268.91;4166051;28;20029;-69
2022/05/13 07:04:06;;;;;;;3.42;1.90;;;;;;;23.47;45.40;102284.66;4166089;28;20030;-69
2022/05/13 07:06:07;;;;;;;4.00;1.92;;;;;;;23.47;45.32;102291.06;4164313;28;20535;-69
2022/05/13 07:08:10;;;;;;;2.85;2.10;;;;;;;23.43;45.26;102286.28;4165034;28;20041;-69
2022/05/13 07:10:14;;;;;;;2.45;1.85;;;;;;;23.44;45.37;102279.59;4164095;28;20075;-69
2022/05/13 07:12:16;;;;;;;5.78;2.00;;;;;;;23.48;44.97;102277.94;4165488;28;20107;-69
2022/05/13 07:14:20;;;;;;;2.72;1.85;;;;;;;23.47;45.01;102271.53;4164227;28;20091;-69
2022/05/13 07:16:23;;;;;;;2.58;2.05;;;;;;;23.44;44.96;102265.63;4165471;28;20037;-69
2022/05/13 07:18:24;;;;;;;3.45;1.50;;;;;;;23.16;45.30;102214.53;4164897;28;20428;-69
2022/05/13 07:20:27;;;;;;;2.10;1.90;;;;;;;23.47;44.87;102256.72;4165455;28;20404;-69
2022/05/13 07:22:29;;;;;;;3.38;1.90;;;;;;;23.46;45.08;102261.47;4165174;28;20420;-69
2022/05/13 07:24:30;;;;;;;2.70;1.77;;;;;;;23.46;45.13;102257.78;4164694;28;20061;-69
2022/05/13 07:26:31;;;;;;;2.45;1.80;;;;;;;23.45;44.97;102262.53;4164773;28;20049;-69
2022/05/13 07:28:34;;;;;;;2.35;1.73;;;;;;;23.46;45.13;102257.78;4165195;28;20543;-69
2022/05/13 07:30:36;;;;;;;3.10;2.00;;;;;;;23.43;45.17;102250.81;4165032;28;20412;-68
2022/05/13 07:32:37;;;;;;;3.40;2.05;;;;;;;23.46;44.88;102268.97;4165276;28;20038;-68
2022/05/13 07:34:39;;;;;;;2.20;1.73;;;;;;;23.47;45.18;102253.91;4166002;28;20021;-69
2022/05/13 07:36:40;;;;;;;1.92;1.73;;;;;;;23.38;44.85;102242.38;4164394;28;20037;-68
2022/05/13 07:41:19;;;;;;;3.83;2.10;;;;;;;23.48;44.95;102244.41;4144361;28;20091;-68
2022/05/13 07:43:20;;;;;;;2.47;1.50;;;;;;;23.48;44.90;102247.22;4164960;28;20045;-69
2022/05/13 07:45:24;;;;;;;2.65;1.80;;;;;;;23.47;44.82;102243.59;4164596;28;20045;-69
2022/05/13 07:47:27;;;;;;;2.33;1.73;;;;;;;23.48;44.92;102244.41;4164996;28;20103;-69
2022/05/13 07:49:37;;;;;;;3.15;2.20;;;;;;;23.47;45.22;102239.94;4131990;28;20046;-68
2022/05/13 07:51:38;;;;;;;2.72;1.90;;;;;;;23.47;45.08;102243.59;4164704;28;20046;-68
2022/05/13 07:53:43;;;;;;;1.85;1.75;;;;;;;23.43;44.87;102230.41;4164718;28;20045;-68
2022/05/13 07:55:45;;;;;;;3.22;1.80;;;;;;;23.46;45.34;102236.31;4164033;28;20037;-68
2022/05/13 07:57:47;;;;;;;2.80;2.08;;;;;;;23.38;44.93;102227.59;4164408;28;20037;-68
2022/05/13 08:02:09;;;;;;;2.38;1.50;;;;;;;23.47;45.05;102239.94;4165247;28;20103;-68
2022/05/13 08:04:13;;;;;;;2.42;1.75;;;;;;;23.42;44.82;102231.53;4164971;28;20030;-68
2022/05/13 08:06:15;;;;;;;3.50;1.88;;;;;;;23.46;44.93;102229.84;4163807;28;20095;-68
2022/05/13 08:08:26;;;;;;;2.05;1.83;;;;;;;23.46;45.31;102238.25;4164707;28;20041;-69
2022/05/13 08:10:28;;;;;;;2.97;1.63;;;;;;;23.43;44.90;102222.03;4162934;28;20103;-69
2022/05/13 08:12:32;;;;;;;2.45;1.70;;;;;;;23.47;45.12;102224.03;4164527;28;20045;-68
2022/05/13 08:14:33;;;;;;;2.67;1.83;;;;;;;23.47;45.03;102220.41;4164853;28;20111;-68
2022/05/13 08:16:35;;;;;;;2.40;1.60;;;;;;;23.46;45.12;102218.69;4164345;28;20045;-69
2022/05/13 08:18:38;;;;;;;3.10;1.98;;;;;;;23.46;44.75;102218.69;4164260;28;20053;-68
2022/05/13 08:20:40;;;;;;;2.45;1.77;;;;;;;23.38;44.94;102205.25;4163407;28;20091;-69
2022/05/13 08:22:42;;;;;;;2.25;1.73;;;;;;;23.46;44.95;102210.31;4146891;28;20528;-68
2022/05/13 08:24:43;;;;;;;2.80;1.70;;;;;;;23.45;45.09;102211.44;4164381;28;20033;-68
2022/05/13 08:26:44;;;;;;;2.72;2.20;;;;;;;23.40;44.74;102197.41;4163564;28;20116;-68
2022/05/13 08:28:46;;;;;;;2.45;1.80;;;;;;;23.46;44.79;102224.28;4163331;28;20045;-68
2022/05/13 08:30:48;;;;;;;2.10;1.90;;;;;;;23.37;44.96;102215.56;4163971;28;20037;-69
2022/05/13 08:32:52;;;;;;;2.45;1.90;;;;;;;23.45;44.81;102228.19;4146911;28;20034;-68
2022/05/13 08:34:54;;;;;;;3.87;1.73;;;;;;;23.46;44.89;102221.47;4163919;28;20103;-68
2022/05/13 08:36:56;;;;;;;2.15;1.92;;;;;;;23.46;45.23;102219.56;4163489;28;20325;-69
2022/05/13 08:38:57;;;;;;;3.90;1.80;;;;;;;23.45;44.99;102223.44;4163126;28;20037;-68
2022/05/13 08:41:07;;;;;;;2.88;1.83;;;;;;;23.44;45.07;102223.72;4163825;28;20045;-68
2022/05/13 08:43:15;;;;;;;3.10;1.98;;;;;;;23.39;45.25;102215.28;4164231;28;20042;-68
2022/05/13 08:45:20;;;;;;;2.47;1.98;;;;;;;23.44;44.96;102226.50;4163771;28;20045;-68
2022/05/13 08:47:39;;;;;;;2.60;2.10;;;;;;;23.44;45.22;102226.50;4163585;28;20107;-68
2022/05/13 08:49:54;;;;;;;2.13;1.73;;;;;;;23.44;45.02;102220.91;4163545;28;20053;-68
2022/05/13 08:51:58;;;;;;;2.80;1.70;;;;;;;23.46;45.24;102218.69;4164134;28;20100;-68
2022/05/13 08:54:17;;;;;;;2.47;1.83;;;;;;;23.44;44.94;102220.91;4164209;28;20038;-68
2022/05/13 08:56:26;;;;;;;3.03;1.85;;;;;;;23.44;45.04;102218.13;4162685;28;20045;-68
2022/05/13 08:58:43;;;;;;;2.50;1.80;;;;;;;23.36;45.38;102202.69;4163491;28;20041;-69
2022/05/13 09:00:50;;;;;;;2.85;2.10;;;;;;;23.45;45.02;102219.81;4164522;28;20034;-69
2022/05/13 09:03:22;;;;;;;3.88;1.85;;;;;;;23.42;44.95;102220.34;4164568;28;20060;-69
2022/05/13 09:05:40;;;;;;;3.28;1.90;;;;;;;23.40;45.11;102230.94;4164621;28;20029;-68
2022/05/13 09:07:44;;;;;;;2.15;1.92;;;;;;;23.45;44.84;102244.94;4163620;28;20037;-69
2022/05/13 09:09:50;;;;;;;2.50;2.15;;;;;;;23.45;45.18;102239.34;4163677;28;20046;-69
2022/05/13 09:12:07;;;;;;;2.20;1.73;;;;;;;23.45;45.18;102251.38;4163903;28;20484;-69
2022/05/13 09:14:45;;;;;;;2.65;1.98;;;;;;;23.44;44.97;102254.44;4159911;28;20100;-69
2022/05/13 09:17:03;;;;;;;4.20;1.83;;;;;;;23.45;45.02;102267.28;4180242;28;20102;-69
2022/05/13 09:19:05;;;;;;;2.60;1.77;;;;;;;23.44;45.29;102260.03;4180665;28;20094;-69
2022/05/13 09:21:16;;;;;;;2.00;1.85;;;;;;;23.43;45.38;102270.38;4180421;28;20561;-69
2022/05/13 09:23:19;;;;;;;1.92;1.73;;;;;;;23.45;44.95;102276.50;4180366;28;20033;-69
2022/05/13 09:25:58;;;;;;;1.77;1.50;;;;;;;23.43;45.47;102286.28;4180232;28;20102;-69
2022/05/13 09:28:20;;;;;;;2.65;1.80;;;;;;;23.43;45.36;102278.75;4180614;28;20462;-69
2022/05/13 09:30:36;;;;;;;3.13;1.90;;;;;;;23.44;44.78;102269.25;4179284;28;20090;-69
2022/05/13 09:32:37;;;;;;;2.35;1.85;;;;;;;23.46;45.19;102281.03;4164250;28;20481;-69
2022/05/13 09:34:49;;;;;;;2.20;1.75;;;;;;;23.45;44.90;102286.84;4167333;28;20045;-69
2022/05/13 09:37:12;;;;;;;2.80;1.90;;;;;;;23.44;45.30;102285.16;4166598;28;20088;-69
2022/05/13 09:39:24;;;;;;;3.50;2.03;;;;;;;23.45;44.79;102293.28;4166299;28;20038;-69
2022/05/13 09:41:34;;;;;;;2.15;1.70;;;;;;;23.43;44.89;102281.53;4166251;28;20041;-68
2022/05/13 09:43:39;;;;;;;1.98;1.50;;;;;;;23.46;44.80;102291.31;4166571;28;20109;-69
2022/05/13 09:45:40;;;;;;;3.00;2.10;;;;;;;23.45;45.21;102295.22;4166353;28;20037;-69
2022/05/13 09:47:57;;;;;;;2.10;1.85;;;;;;;23.39;44.77;102279.53;4166082;28;20100;-69
2022/05/13 09:50:01;;;;;;;2.42;1.75;;;;;;;23.43;45.03;102283.50;4167121;28;20033;-68
2022/05/13 09:52:10;;;;;;;2.30;1.77;;;;;;;23.44;44.90;102286.00;4166379;28;20103;-69
2022/05/13 09:54:22;;;;;;;2.20;1.63;;;;;;;23.44;44.62;102276.78;4171671;28;20045;-69
2022/05/13 09:56:23;;;;;;;3.38;1.85;;;;;;;23.45;45.08;102282.09;4184462;28;20040;-69
2022/05/13 09:58:32;;;;;;;1.88;1.70;;;;;;;23.44;44.65;102274.00;4177627;28;20036;-68
2022/05/13 10:00:41;;;;;;;1.98;1.70;;;;;;;23.41;45.02;102277.31;4184751;28;20151;-69